Bunola, PA (15020)

7:52 AM EST on January 16, 2017 (GMT -0500)
Forward Township | | Change Station
Active Advisory: Flood Advisory

Elev 1171 ft 40.24 °N, 79.91 °W | Updated 12 seconds ago

Overcast
Overcast
27.5 °F
Feels Like 28 °F
N
0.0
Wind Variable Wind from WSW
Gusts 0.0 mph

Today
High -- | Low -- °F
--% Chance of Precip.
Yesterday
High -- | Low -- °F
Precip. -- in
Pressure 30.39 in
Visibility 10.0 miles
Clouds Scattered Clouds 11000 ft
Windchill 28 °F
Dew Point 19 °F
Humidity 71%
Rainfall 0.00 in
Snow Depth Not available.
7:39 AM 5:19 PM
Waning Gibbous, 81% visible
METAR KAGC 161153Z 00000KT 10SM SCT110 M03/M07 A3033 RMK AO2 SLP289 T10281072 11011 21033 53001
Pressure 30.39 in
Visibility 10.0 miles
Clouds Scattered Clouds 11000 ft
Windchill 28 °F
Dew Point 19 °F
Humidity 71%
Rainfall 0.00 in
Snow Depth Not available.
7:39 AM 5:19 PM
Waning Gibbous, 81% visible
METAR KAGC 161153Z 00000KT 10SM SCT110 M03/M07 A3033 RMK AO2 SLP289 T10281072 11011 21033 53001

Get Your Daily Forecast Email!

Thanks for signing up!

Be on the lookout for a verification email in your inbox.

You'll start receiving the daily forecast at 8 AM.

×

10-Day Weather Forecast

Almanac

Astronomy

Jan. 16, 2017 Rise Set
Actual Time
Civil Twilight
Nautical Twilight
Astronomical Twilight
Moon
Length of Visible Light
Length of Day
Tomorrow will be .
, % of the Moon is Illuminated

Today's Extremes

State Highs State Lows

Community

WunderPhotos

Upload Photos

1,962,540 photos uploaded!

WunderBlog® & News

Nearby

Air Quality

  Air Quality AQ Index Pollutant
Not available.

Snow Depth

Station Depth Elevation

Earthquake Activity

City Distance Mag. Time & Date
Minimum magnitude displayed is 2.5.

Coastal Water Temperatures

Place Temperature

Stations

Nearby Weather Stations

Station Location Temp. Windchill Dew Point Humidity Wind Precip. Elev Updated Type
                   

Watches & Warnings

Flood Advisory
Issued: 8:37 PM EST Jan. 15, 2017 – National Weather Service

The Flood Advisory is extended for
the Ohio River at Pittsburgh.
* Until Monday evening.
* At 08pm Sunday the stage was 18.5 feet.
* Flood stage is 25.0 feet.
* Forecast... the river will rise to near 19.0 feet after midnight
tonight.
* Impact... at 19.0 feet, water begins to flow onto the North Shore
riverwalk between the stadiums.


Lat... Lon 4043 7999 4045 8005 4047 8003 4045 8001
      4046 7999 4045 7998


24